createdAt,value
2022-09-10T00:02:54.467Z,25.47
2022-09-10T00:08:04.735Z,25.46
2022-09-10T00:18:36.161Z,25.42
2022-09-10T00:23:50.412Z,25.39
2022-09-10T00:29:09.511Z,25.34
2022-09-10T00:34:17.720Z,25.23
2022-09-10T00:39:24.352Z,25.14
2022-09-10T00:44:56.614Z,25.00
2022-09-10T00:50:10.639Z,24.85
2022-09-10T00:55:17.402Z,24.72
2022-09-10T01:05:32.495Z,24.55
2022-09-10T01:11:03.962Z,24.42
2022-09-10T01:16:27.865Z,24.33
2022-09-10T01:22:03.741Z,24.25
2022-09-10T01:27:52.742Z,24.18
2022-09-10T01:33:46.555Z,24.11
2022-09-10T01:39:05.179Z,24.08
2022-09-10T01:50:51.833Z,24.02
2022-09-10T01:56:24.433Z,23.99
2022-09-10T02:01:33.771Z,23.94
2022-09-10T02:06:41.648Z,23.91
2022-09-10T02:12:01.959Z,23.89
2022-09-10T02:17:32.023Z,23.87
2022-09-10T02:22:38.878Z,23.85
2022-09-10T02:27:44.525Z,23.82
2022-09-10T02:32:48.364Z,23.81
2022-09-10T02:37:53.297Z,23.79
2022-09-10T02:43:04.189Z,23.75
2022-09-10T02:48:13.901Z,23.71
2022-09-10T02:53:40.982Z,23.69
2022-09-10T02:59:00.212Z,23.65
2022-09-10T03:04:21.749Z,23.64
2022-09-10T03:09:23.758Z,23.61
2022-09-10T03:14:25.981Z,23.61
2022-09-10T03:19:28.216Z,23.60
2022-09-10T03:24:30.394Z,23.60
2022-09-10T03:29:32.549Z,23.57
2022-09-10T03:34:35.227Z,23.55
2022-09-10T03:39:42.445Z,23.49
2022-09-10T03:44:44.637Z,23.39
2022-09-10T03:49:46.728Z,23.30
2022-09-10T03:54:50.816Z,23.24
2022-09-10T03:59:52.856Z,23.18
2022-09-10T04:04:54.968Z,23.14
2022-09-10T04:09:56.893Z,23.11
2022-09-10T04:14:59.113Z,23.04
2022-09-10T04:20:01.444Z,23.00
2022-09-10T04:25:03.774Z,22.96
2022-09-10T04:30:08.400Z,22.94
2022-09-10T04:35:11.572Z,22.89
2022-09-10T04:40:13.755Z,22.85
2022-09-10T04:45:20.453Z,22.82
2022-09-10T04:50:30.821Z,22.80
2022-09-10T04:55:51.477Z,22.77
2022-09-10T05:01:00.231Z,22.78
2022-09-10T05:06:10.096Z,22.79
2022-09-10T05:11:15.296Z,22.79
2022-09-10T05:16:17.362Z,22.76
2022-09-10T05:21:19.665Z,22.74
2022-09-10T05:26:22.292Z,22.72
2022-09-10T05:31:28.228Z,22.75
2022-09-10T05:36:34.482Z,22.79
2022-09-10T05:41:40.442Z,22.83
2022-09-10T05:46:42.609Z,22.84
2022-09-10T05:51:47.865Z,22.86
2022-09-10T05:56:51.271Z,22.88
2022-09-10T06:01:53.686Z,22.92
2022-09-10T06:06:57.139Z,22.95
2022-09-10T06:11:59.504Z,22.97
2022-09-10T06:17:01.858Z,23.01
2022-09-10T06:22:08.505Z,23.09
2022-09-10T06:27:18.604Z,23.16
2022-09-10T06:32:21.310Z,23.20
2022-09-10T06:37:24.285Z,23.28
2022-09-10T06:42:26.886Z,23.36
2022-09-10T06:53:16.812Z,23.57
2022-09-10T06:58:21.994Z,23.71
2022-09-10T07:03:38.422Z,24.09
2022-09-10T07:08:41.655Z,24.72
2022-09-10T07:13:52.089Z,25.30
2022-09-10T07:19:07.700Z,25.83
2022-09-10T07:24:16.403Z,26.19
2022-09-10T07:29:31.493Z,26.52
2022-09-10T07:34:43.669Z,26.99
2022-09-10T07:39:46.956Z,27.02
2022-09-10T07:44:50.164Z,27.07
2022-09-10T07:49:53.128Z,27.16
2022-09-10T07:54:55.413Z,27.30
2022-09-10T07:59:58.407Z,27.46
2022-09-10T08:05:01.249Z,27.59
2022-09-10T08:10:09.839Z,27.73
2022-09-10T08:15:14.089Z,27.85
2022-09-10T08:20:17.420Z,27.93
2022-09-10T08:31:09.068Z,28.04
2022-09-10T08:36:19.600Z,28.06
2022-09-10T08:41:47.089Z,28.12
2022-09-10T08:46:56.534Z,28.13
2022-09-10T08:52:14.278Z,28.05
2022-09-10T08:57:34.151Z,28.13
2022-09-10T09:03:05.241Z,28.39
2022-09-10T09:08:14.601Z,28.43
2022-09-10T09:13:32.280Z,27.87
2022-09-10T09:19:03.690Z,27.50
2022-09-10T09:24:22.731Z,27.14
2022-09-10T09:29:35.974Z,26.94
2022-09-10T09:35:05.327Z,27.00
2022-09-10T09:40:26.531Z,27.48
2022-09-10T09:45:36.463Z,27.42
2022-09-10T09:50:41.936Z,27.60
2022-09-10T09:56:02.689Z,27.96
2022-09-10T10:01:04.883Z,28.09
2022-09-10T10:06:11.878Z,28.32
2022-09-10T10:11:21.237Z,28.63
2022-09-10T10:22:30.261Z,28.91
2022-09-10T10:39:58.758Z,28.12
2022-09-10T10:51:18.780Z,27.99
2022-09-10T10:56:38.414Z,28.17
2022-09-10T11:01:46.858Z,28.10
2022-09-10T11:07:05.709Z,28.11
2022-09-10T11:12:14.221Z,28.01
2022-09-10T11:17:28.690Z,28.02
2022-09-10T11:22:40.387Z,27.88
2022-09-10T11:28:07.221Z,27.92
2022-09-10T11:33:15.756Z,27.91
2022-09-10T11:38:26.816Z,27.94
2022-09-10T11:43:42.377Z,28.13
2022-09-10T11:49:06.521Z,28.30
2022-09-10T11:54:21.468Z,28.20
2022-09-10T12:00:04.248Z,28.19
2022-09-10T12:05:30.838Z,28.37
2022-09-10T12:10:53.442Z,28.21
2022-09-10T12:16:33.294Z,28.17
2022-09-10T12:28:00.108Z,28.07
2022-09-10T12:33:15.209Z,27.89
2022-09-10T12:38:46.022Z,27.79
2022-09-10T12:43:48.174Z,27.87
2022-09-10T12:49:05.739Z,27.86
2022-09-10T12:54:22.906Z,27.91
2022-09-10T12:59:30.603Z,27.99
2022-09-10T13:04:35.988Z,28.10
2022-09-10T13:09:42.473Z,28.12
2022-09-10T13:20:21.179Z,28.08
2022-09-10T13:25:34.986Z,28.01
2022-09-10T13:30:36.994Z,27.95
2022-09-10T13:35:57.028Z,27.87
2022-09-10T13:41:33.129Z,27.86
2022-09-10T13:46:53.923Z,27.77
2022-09-10T13:51:59.394Z,27.69
2022-09-10T13:57:22.522Z,27.74
2022-09-10T14:02:49.079Z,27.79
2022-09-10T14:07:51.550Z,27.77
2022-09-10T14:12:54.857Z,27.77
2022-09-10T14:17:59.302Z,27.82
2022-09-10T14:23:16.095Z,27.86
2022-09-10T14:28:28.142Z,27.83
2022-09-10T14:33:43.211Z,27.84
2022-09-10T14:39:21.770Z,27.86
2022-09-10T14:44:24.012Z,27.89
2022-09-10T14:49:29.564Z,27.88
2022-09-10T14:54:33.423Z,27.87
2022-09-10T14:59:44.191Z,27.95
2022-09-10T15:04:50.115Z,27.99
2022-09-10T15:09:53.802Z,27.99
2022-09-10T15:14:57.636Z,28.00
2022-09-10T15:19:59.640Z,28.01
2022-09-10T15:25:10.511Z,28.02
2022-09-10T15:30:18.223Z,27.86
2022-09-10T15:35:23.374Z,27.86
2022-09-10T15:40:25.364Z,27.79
2022-09-10T15:45:27.389Z,27.72
2022-09-10T15:50:29.517Z,27.67
2022-09-10T15:55:31.667Z,27.71
2022-09-10T16:00:37.407Z,27.72
2022-09-10T16:05:39.490Z,27.69
2022-09-10T16:10:41.453Z,27.70
2022-09-10T16:15:43.477Z,27.70
2022-09-10T16:20:46.109Z,27.69
2022-09-10T16:25:52.980Z,27.72
2022-09-10T16:30:55.054Z,27.75
2022-09-10T16:35:58.129Z,27.75
2022-09-10T16:41:01.497Z,27.70
2022-09-10T16:46:09.320Z,27.60
2022-09-10T16:51:16.970Z,27.56
2022-09-10T16:56:19.082Z,27.41
2022-09-10T17:01:21.489Z,27.37
2022-09-10T17:06:26.220Z,27.33
2022-09-10T17:11:31.479Z,27.35
2022-09-10T17:16:35.016Z,27.32
2022-09-10T17:21:39.432Z,27.29
2022-09-10T17:26:41.751Z,27.28
2022-09-10T17:31:46.676Z,27.32
2022-09-10T17:36:48.913Z,27.31
2022-09-10T17:41:51.016Z,27.29
2022-09-10T18:04:08.789Z,27.22
2022-09-10T18:09:11.715Z,27.22
2022-09-10T18:14:20.674Z,27.17
2022-09-10T18:19:23.178Z,27.12
2022-09-10T18:24:25.351Z,27.04
2022-09-10T18:29:30.150Z,27.01
2022-09-10T18:34:32.155Z,26.99
2022-09-10T18:39:34.343Z,27.00
2022-09-10T18:44:39.733Z,26.99
2022-09-10T18:49:43.293Z,26.99
2022-09-10T18:54:46.729Z,26.98
2022-09-10T18:59:48.812Z,26.97
2022-09-10T19:05:10.258Z,26.99
2022-09-10T19:10:12.412Z,27.01
2022-09-10T19:15:14.477Z,27.03
2022-09-10T19:20:16.507Z,27.07
2022-09-10T19:25:18.361Z,27.06
2022-09-10T19:30:20.355Z,27.06
2022-09-10T19:35:22.640Z,27.08
2022-09-10T19:40:24.717Z,27.08
2022-09-10T19:45:27.481Z,27.09
2022-09-10T19:50:29.565Z,27.10
2022-09-10T19:55:32.439Z,27.11
2022-09-10T20:00:46.302Z,27.13
2022-09-10T20:05:49.188Z,27.14
2022-09-10T20:10:51.935Z,27.14
2022-09-10T20:15:53.965Z,27.16
2022-09-10T20:21:14.519Z,27.18
2022-09-10T20:26:22.591Z,27.17
2022-09-10T20:31:26.506Z,27.18
2022-09-10T20:36:29.426Z,27.20
2022-09-10T20:41:31.999Z,27.20
2022-09-10T20:46:36.721Z,27.20
2022-09-10T20:51:40.671Z,27.18
2022-09-10T20:56:43.259Z,27.18
2022-09-10T21:01:47.108Z,27.18
2022-09-10T21:06:49.195Z,27.19
2022-09-10T21:11:51.182Z,27.19
2022-09-10T21:16:53.315Z,27.21
2022-09-10T21:21:55.227Z,27.18
2022-09-10T21:26:57.360Z,27.17
2022-09-10T21:31:59.519Z,27.17
2022-09-10T21:37:10.244Z,27.15
2022-09-10T21:42:12.472Z,27.12
2022-09-10T21:47:14.489Z,27.09
2022-09-10T21:52:16.751Z,27.05
2022-09-10T21:57:18.705Z,27.03
2022-09-10T22:02:20.758Z,27.01
2022-09-10T22:07:22.647Z,26.95
2022-09-10T22:12:25.137Z,26.92
2022-09-10T22:17:27.104Z,26.90
2022-09-10T22:22:30.485Z,26.90
2022-09-10T22:27:40.074Z,26.91
2022-09-10T22:32:42.109Z,26.90
2022-09-10T22:37:43.980Z,26.91
2022-09-10T22:42:45.820Z,26.90
2022-09-10T22:47:48.225Z,26.91
2022-09-10T22:52:50.270Z,26.92
2022-09-10T22:57:53.919Z,26.94
2022-09-10T23:02:55.844Z,26.96
2022-09-10T23:07:57.879Z,26.96
2022-09-10T23:13:00.003Z,26.98
2022-09-10T23:18:01.995Z,26.97
2022-09-10T23:23:03.904Z,26.95
2022-09-10T23:28:07.390Z,26.89
2022-09-10T23:33:09.607Z,26.84
2022-09-10T23:38:11.507Z,26.81
2022-09-10T23:43:14.556Z,26.78
2022-09-10T23:48:16.394Z,26.73
2022-09-10T23:53:19.083Z,26.69
2022-09-10T23:58:21.581Z,26.64
